createdAt,value
2022-09-05T00:00:27.633Z,100354.00
2022-09-05T00:03:07.708Z,100350.34
2022-09-05T00:06:02.778Z,100353.13
2022-09-05T00:08:45.121Z,100347.69
2022-09-05T00:11:41.202Z,100346.97
2022-09-05T00:15:16.054Z,100338.63
2022-09-05T00:18:00.191Z,100334.31
2022-09-05T00:24:19.253Z,100354.16
2022-09-05T00:24:27.840Z,100336.31
2022-09-05T00:26:50.164Z,100341.63
2022-09-05T00:31:06.131Z,100343.47
2022-09-05T00:32:36.514Z,100350.50
2022-09-05T00:35:20.608Z,100344.44
2022-09-05T00:37:55.330Z,100342.28
2022-09-05T00:40:33.594Z,100353.94
2022-09-05T00:43:07.352Z,100348.63
2022-09-05T00:45:43.718Z,100362.75
2022-09-05T00:48:33.438Z,100360.75
2022-09-05T00:51:18.268Z,100367.56
2022-09-05T00:54:01.145Z,100351.91
2022-09-05T00:56:47.862Z,100337.41
2022-09-05T00:59:59.097Z,100347.53
2022-09-05T01:02:51.699Z,100350.56
2022-09-05T01:05:40.199Z,100342.88
2022-09-05T01:08:24.614Z,100340.69
2022-09-05T01:11:03.725Z,100341.19
2022-09-05T01:13:41.948Z,100328.16
2022-09-05T01:16:23.554Z,100323.53
2022-09-05T01:19:07.061Z,100328.16
2022-09-05T01:22:09.522Z,100330.19
2022-09-05T01:25:05.455Z,100327.00
2022-09-05T01:28:37.021Z,100327.47
2022-09-05T01:30:59.391Z,100331.81
2022-09-05T01:33:43.397Z,100316.16
2022-09-05T01:36:27.930Z,100314.13
2022-09-05T01:40:10.526Z,100310.09
2022-09-05T01:42:00.982Z,100318.56
2022-09-05T01:47:40.225Z,100328.03
2022-09-05T01:50:28.887Z,100341.28
2022-09-05T01:53:13.512Z,100345.94
2022-09-05T01:56:18.104Z,100341.75
2022-09-05T01:58:59.331Z,100351.88
2022-09-05T02:01:37.309Z,100356.53
2022-09-05T02:04:31.741Z,100348.66
2022-09-05T02:07:15.210Z,100351.63
2022-09-05T02:10:20.293Z,100366.88
2022-09-05T02:12:58.421Z,100378.97
2022-09-05T02:15:52.459Z,100380.25
2022-09-05T02:18:53.047Z,100386.69
2022-09-05T02:21:55.683Z,100409.53
2022-09-05T02:24:29.643Z,100415.25
2022-09-05T02:27:37.417Z,100418.81
2022-09-05T02:30:12.488Z,100438.78
2022-09-05T02:32:49.893Z,100438.88
2022-09-05T02:35:28.616Z,100437.31
2022-09-05T02:41:32.056Z,100421.47
2022-09-05T02:45:09.704Z,100427.41
2022-09-05T02:45:20.403Z,100430.34
2022-09-05T02:47:01.990Z,100436.09
2022-09-05T02:52:50.456Z,100435.00
2022-09-05T02:57:34.885Z,100430.22
2022-09-05T02:57:47.027Z,100427.13
2022-09-05T02:59:09.247Z,100421.69
2022-09-05T03:02:00.642Z,100425.09
2022-09-05T03:04:39.126Z,100428.19
2022-09-05T03:07:26.010Z,100423.44
2022-09-05T03:10:11.954Z,100433.06
2022-09-05T03:13:15.153Z,100432.06
2022-09-05T03:16:18.844Z,100436.56
2022-09-05T03:19:21.931Z,100430.84
2022-09-05T03:22:37.150Z,100441.75
2022-09-05T03:25:50.401Z,100435.09
2022-09-05T03:29:14.779Z,100430.19
2022-09-05T03:32:09.683Z,100438.41
2022-09-05T03:35:11.777Z,100440.41
2022-09-05T03:38:04.080Z,100442.63
2022-09-05T03:40:58.717Z,100457.66
2022-09-05T03:44:04.550Z,100456.28
2022-09-05T03:47:00.504Z,100463.94
2022-09-05T03:54:00.490Z,100467.75
2022-09-05T03:57:19.158Z,100470.41
2022-09-05T03:57:27.026Z,100478.94
2022-09-05T03:59:20.484Z,100477.44
2022-09-05T04:03:30.851Z,100488.22
2022-09-05T04:08:17.766Z,100500.97
2022-09-05T04:08:19.422Z,100493.09
2022-09-05T04:10:37.527Z,100496.78
2022-09-05T04:13:11.484Z,100496.22
2022-09-05T04:15:47.552Z,100504.50
2022-09-05T04:18:32.755Z,100517.50
2022-09-05T04:21:07.951Z,100518.47
2022-09-05T04:23:49.850Z,100532.34
2022-09-05T04:26:32.979Z,100524.91
2022-09-05T04:29:10.513Z,100524.91
2022-09-05T04:32:06.546Z,100523.09
2022-09-05T04:35:00.288Z,100525.88
2022-09-05T04:37:48.631Z,100519.59
2022-09-05T04:40:48.215Z,100525.19
2022-09-05T04:43:27.500Z,100526.47
2022-09-05T04:46:08.333Z,100535.84
2022-09-05T04:48:44.355Z,100533.19
2022-09-05T04:51:43.940Z,100539.47
2022-09-05T04:54:36.851Z,100529.00
2022-09-05T04:57:17.464Z,100533.63
2022-09-05T05:02:36.714Z,100542.13
2022-09-05T05:06:09.238Z,100543.78
2022-09-05T05:06:11.399Z,100532.91
2022-09-05T05:08:48.071Z,100537.38
2022-09-05T05:17:53.918Z,100551.22
2022-09-05T05:18:11.818Z,100563.34
2022-09-05T05:18:14.532Z,100554.41
2022-09-05T05:20:40.057Z,100571.47
2022-09-05T05:23:08.055Z,100575.78
2022-09-05T05:25:46.507Z,100583.16
2022-09-05T05:28:24.842Z,100591.53
2022-09-05T05:31:01.576Z,100583.81
2022-09-05T05:33:35.867Z,100587.75
2022-09-05T05:36:09.593Z,100596.66
2022-09-05T05:38:54.019Z,100593.88
2022-09-05T05:41:29.297Z,100587.25
2022-09-05T05:43:59.485Z,100596.50
2022-09-05T05:46:34.877Z,100610.75
2022-09-05T05:49:27.755Z,100607.19
2022-09-05T05:52:16.041Z,100606.38
2022-09-05T05:54:51.377Z,100601.63
2022-09-05T05:58:04.251Z,100600.22
2022-09-05T06:00:54.500Z,100609.88
2022-09-05T06:04:02.299Z,100618.25
2022-09-05T06:06:42.579Z,100610.84
2022-09-05T06:14:50.772Z,100622.16
2022-09-05T06:14:55.457Z,100624.13
2022-09-05T06:16:36.746Z,100623.41
2022-09-05T06:20:20.921Z,100631.66
2022-09-05T06:22:55.981Z,100649.25
2022-09-05T06:25:51.545Z,100647.56
2022-09-05T06:28:27.687Z,100648.84
2022-09-05T06:31:30.763Z,100648.69
2022-09-05T06:34:33.140Z,100660.59
2022-09-05T06:37:16.649Z,100669.09
2022-09-05T06:40:12.291Z,100682.81
2022-09-05T06:43:01.790Z,100694.97
2022-09-05T06:45:46.828Z,100700.84
2022-09-05T06:48:36.641Z,100703.66
2022-09-05T06:51:44.855Z,100699.75
2022-09-05T06:54:37.008Z,100696.66
2022-09-05T06:57:43.905Z,100700.44
2022-09-05T07:00:24.928Z,100710.38
2022-09-05T07:03:22.888Z,100700.16
2022-09-05T07:05:59.800Z,100698.06
2022-09-05T07:08:40.812Z,100704.63
2022-09-05T07:11:17.179Z,100709.91
2022-09-05T07:13:59.807Z,100701.97
2022-09-05T07:16:42.267Z,100698.88
2022-09-05T07:19:27.788Z,100698.44
2022-09-05T07:22:47.925Z,100699.84
2022-09-05T07:25:18.284Z,100699.69
2022-09-05T07:28:28.423Z,100701.22
2022-09-05T07:30:49.731Z,100699.13
2022-09-05T07:33:25.317Z,100697.16
2022-09-05T07:36:07.435Z,100692.38
2022-09-05T07:38:52.478Z,100702.44
2022-09-05T07:41:27.777Z,100704.53
2022-09-05T07:44:00.981Z,100707.44
2022-09-05T07:46:33.925Z,100705.88
2022-09-05T07:49:09.747Z,100697.59
2022-09-05T07:56:36.309Z,100683.94
2022-09-05T07:56:55.223Z,100683.84
2022-09-05T07:57:50.732Z,100697.94
2022-09-05T08:00:26.864Z,100703.78
2022-09-05T08:03:02.413Z,100720.03
2022-09-05T08:05:44.788Z,100718.47
2022-09-05T08:08:18.691Z,100709.44
2022-09-05T08:11:23.171Z,100713.91
2022-09-05T08:14:41.743Z,100711.88
2022-09-05T08:16:48.651Z,100713.16
2022-09-05T08:19:44.940Z,100719.13
2022-09-05T08:22:23.625Z,100716.66
2022-09-05T08:25:02.551Z,100707.28
2022-09-05T08:27:36.740Z,100708.91
2022-09-05T08:30:26.872Z,100717.19
2022-09-05T08:33:10.376Z,100717.91
2022-09-05T08:35:45.353Z,100708.09
2022-09-05T08:38:22.300Z,100719.19
2022-09-05T08:41:06.403Z,100719.00
2022-09-05T08:46:35.177Z,100696.28
2022-09-05T08:46:41.709Z,100711.19
2022-09-05T08:49:45.997Z,100686.81
2022-09-05T08:52:25.240Z,100692.91
2022-09-05T08:55:07.664Z,100699.97
2022-09-05T08:58:15.998Z,100690.69
2022-09-05T09:00:55.160Z,100692.84
2022-09-05T09:03:35.468Z,100698.81
2022-09-05T09:07:29.144Z,100693.69
2022-09-05T09:10:04.407Z,100691.16
2022-09-05T09:13:09.948Z,100695.09
2022-09-05T09:15:42.562Z,100703.53
2022-09-05T09:18:16.976Z,100699.78
2022-09-05T09:20:53.631Z,100710.94
2022-09-05T09:23:43.281Z,100714.19
2022-09-05T09:26:17.271Z,100709.72
2022-09-05T09:28:58.418Z,100716.22
2022-09-05T09:31:38.862Z,100711.41
2022-09-05T09:34:36.671Z,100701.31
2022-09-05T09:37:40.276Z,100707.50
2022-09-05T09:41:00.544Z,100710.75
2022-09-05T09:44:02.111Z,100691.97
2022-09-05T09:46:43.786Z,100680.34
2022-09-05T09:49:35.851Z,100656.72
2022-09-05T09:52:37.632Z,100649.78
2022-09-05T09:55:48.566Z,100647.63
2022-09-05T09:58:50.223Z,100649.78
2022-09-05T10:01:53.808Z,100653.13
2022-09-05T10:10:39.192Z,100650.25
2022-09-05T10:10:45.164Z,100633.53
2022-09-05T10:14:50.619Z,100612.69
2022-09-05T10:17:40.777Z,100609.19
2022-09-05T10:20:29.454Z,100610.53
2022-09-05T10:23:10.800Z,100603.41
2022-09-05T10:26:13.221Z,100608.38
2022-09-05T10:28:53.274Z,100583.31
2022-09-05T10:35:10.209Z,100579.81
2022-09-05T10:35:19.765Z,100579.66
2022-09-05T10:37:51.022Z,100587.47
2022-09-05T10:40:25.969Z,100571.56
2022-09-05T10:43:02.620Z,100577.22
2022-09-05T10:45:45.054Z,100581.66
2022-09-05T10:48:24.947Z,100574.81
2022-09-05T10:51:27.101Z,100570.75
2022-09-05T10:54:15.337Z,100561.38
2022-09-05T10:56:48.924Z,100567.34
2022-09-05T11:02:28.887Z,100561.03
2022-09-05T11:02:34.758Z,100557.88
2022-09-05T11:05:22.321Z,100554.56
2022-09-05T11:08:00.553Z,100550.38
2022-09-05T11:10:36.783Z,100545.03
2022-09-05T11:13:17.590Z,100536.69
2022-09-05T11:16:04.755Z,100542.44
2022-09-05T11:19:04.288Z,100520.16
2022-09-05T11:22:21.941Z,100501.00
2022-09-05T11:24:51.962Z,100503.41
2022-09-05T11:27:30.116Z,100501.00
2022-09-05T11:30:06.224Z,100499.16
2022-09-05T11:39:45.767Z,100494.63
2022-09-05T11:40:01.996Z,100515.63
2022-09-05T11:40:04.115Z,100498.72
2022-09-05T11:42:25.712Z,100499.88
2022-09-05T11:45:15.629Z,100509.78
2022-09-05T11:48:27.427Z,100502.84
2022-09-05T11:51:38.795Z,100494.19
2022-09-05T11:54:44.091Z,100514.81
2022-09-05T11:57:46.975Z,100502.84
2022-09-05T12:00:33.429Z,100503.22
2022-09-05T12:03:59.798Z,100503.66
2022-09-05T12:06:57.453Z,100497.59
2022-09-05T12:09:54.325Z,100506.38
2022-09-05T12:12:41.385Z,100508.13
2022-09-05T12:15:27.970Z,100522.84
2022-09-05T12:18:21.575Z,100513.84
2022-09-05T12:21:03.158Z,100512.41
2022-09-05T12:24:11.645Z,100512.09
2022-09-05T12:27:40.164Z,100504.16
2022-09-05T12:29:49.001Z,100499.34
2022-09-05T12:35:32.120Z,100491.72
2022-09-05T12:36:04.363Z,100498.00
2022-09-05T12:40:56.858Z,100490.47
2022-09-05T12:41:40.656Z,100479.16
2022-09-05T12:44:45.052Z,100487.38
2022-09-05T12:47:16.656Z,100466.78
2022-09-05T12:50:03.405Z,100471.63
2022-09-05T12:52:48.315Z,100461.59
2022-09-05T12:55:29.110Z,100465.16
2022-09-05T13:02:18.645Z,100480.97
2022-09-05T13:03:13.414Z,100482.00
2022-09-05T13:04:16.941Z,100484.91
2022-09-05T13:06:47.227Z,100491.19
2022-09-05T13:09:30.875Z,100488.25
2022-09-05T13:14:46.328Z,100491.38
2022-09-05T13:15:21.908Z,100502.19
2022-09-05T13:18:01.065Z,100495.84
2022-09-05T13:20:37.319Z,100505.44
2022-09-05T13:23:19.453Z,100513.63
2022-09-05T13:25:58.314Z,100505.06
2022-09-05T13:28:35.710Z,100521.75
2022-09-05T13:37:53.800Z,100518.94
2022-09-05T13:38:01.205Z,100520.59
2022-09-05T13:38:11.970Z,100519.72
2022-09-05T13:39:54.041Z,100515.97
2022-09-05T13:42:28.012Z,100517.13
2022-09-05T13:44:59.290Z,100523.34
2022-09-05T13:48:21.731Z,100519.59
2022-09-05T13:50:55.486Z,100507.31
2022-09-05T13:53:36.980Z,100509.47
2022-09-05T13:56:23.797Z,100515.53
2022-09-05T13:58:56.535Z,100500.88
2022-09-05T14:02:24.902Z,100494.50
2022-09-05T14:05:20.751Z,100475.94
2022-09-05T14:08:27.642Z,100467.00
2022-09-05T14:11:24.354Z,100457.50
2022-09-05T14:14:11.328Z,100469.81
2022-09-05T14:16:53.490Z,100463.28
2022-09-05T14:19:43.183Z,100441.34
2022-09-05T14:22:41.065Z,100443.59
2022-09-05T14:25:19.277Z,100428.56
2022-09-05T14:27:50.644Z,100434.41
2022-09-05T14:34:38.337Z,100453.03
2022-09-05T14:37:45.870Z,100426.00
2022-09-05T14:38:00.544Z,100434.59
2022-09-05T14:40:40.497Z,100409.59
2022-09-05T14:43:39.161Z,100401.63
2022-09-05T14:46:28.749Z,100371.06
2022-09-05T14:49:22.601Z,100415.00
2022-09-05T14:51:55.458Z,100427.34
2022-09-05T14:59:40.609Z,100441.78
2022-09-05T15:02:42.866Z,100426.63
2022-09-05T15:03:06.255Z,100435.25
2022-09-05T15:05:43.836Z,100425.75
2022-09-05T15:10:02.377Z,100417.75
2022-09-05T15:12:18.265Z,100409.16
2022-09-05T15:14:06.088Z,100422.16
2022-09-05T15:16:43.872Z,100409.47
2022-09-05T15:20:05.563Z,100399.91
2022-09-05T15:22:37.570Z,100382.09
2022-09-05T15:25:18.043Z,100372.97
2022-09-05T15:27:48.287Z,100380.03
2022-09-05T15:30:22.589Z,100385.56
2022-09-05T15:33:13.896Z,100394.03
2022-09-05T15:35:44.862Z,100379.75
2022-09-05T15:38:33.665Z,100378.53
2022-09-05T15:41:25.093Z,100389.66
2022-09-05T15:44:00.134Z,100387.78
2022-09-05T15:46:43.029Z,100396.63
2022-09-05T15:49:14.423Z,100385.63
2022-09-05T15:51:48.868Z,100389.41
2022-09-05T15:54:37.666Z,100372.94
2022-09-05T15:57:17.505Z,100369.66
2022-09-05T15:59:49.846Z,100356.19
2022-09-05T16:02:27.187Z,100359.06
2022-09-05T16:10:36.698Z,100355.94
2022-09-05T16:10:49.867Z,100352.00
2022-09-05T16:11:31.646Z,100354.44
2022-09-05T16:13:53.346Z,100370.75
2022-09-05T16:23:20.988Z,100372.03
2022-09-05T16:23:23.590Z,100366.94
2022-09-05T16:23:24.702Z,100363.56
2022-09-05T16:25:31.487Z,100353.84
2022-09-05T16:28:05.019Z,100315.31
2022-09-05T16:30:35.952Z,100308.09
2022-09-05T16:33:09.851Z,100314.84
2022-09-05T16:35:48.306Z,100320.34
2022-09-05T16:38:22.873Z,100332.31
2022-09-05T16:41:24.448Z,100333.00
2022-09-05T16:43:58.457Z,100336.03
2022-09-05T16:46:33.016Z,100341.63
2022-09-05T16:49:11.953Z,100348.00
2022-09-05T16:51:50.018Z,100357.69
2022-09-05T16:54:27.687Z,100345.00
2022-09-05T16:57:22.235Z,100344.75
2022-09-05T16:59:53.178Z,100347.63
2022-09-05T17:02:29.771Z,100341.25
2022-09-05T17:05:20.338Z,100335.31
2022-09-05T17:08:05.809Z,100339.50
2022-09-05T17:10:43.084Z,100345.56
2022-09-05T17:13:18.680Z,100348.78
2022-09-05T17:15:52.785Z,100368.38
2022-09-05T17:18:27.879Z,100361.19
2022-09-05T17:21:03.977Z,100363.50
2022-09-05T17:29:18.961Z,100358.97
2022-09-05T17:29:37.961Z,100355.28
2022-09-05T17:31:20.849Z,100358.31
2022-09-05T17:32:36.971Z,100360.16
2022-09-05T17:35:18.590Z,100356.66
2022-09-05T17:38:11.788Z,100339.59
2022-09-05T17:41:20.042Z,100344.19
2022-09-05T17:43:58.775Z,100331.63
2022-09-05T17:46:31.981Z,100330.50
2022-09-05T17:49:18.648Z,100322.81
2022-09-05T17:52:18.424Z,100319.00
2022-09-05T17:54:50.213Z,100327.53
2022-09-05T17:57:42.378Z,100323.53
2022-09-05T18:00:45.760Z,100317.84
2022-09-05T18:04:17.731Z,100313.00
2022-09-05T18:07:00.600Z,100324.75
2022-09-05T18:09:59.063Z,100320.03
2022-09-05T18:13:14.254Z,100322.91
2022-09-05T18:16:10.912Z,100327.25
2022-09-05T18:19:28.375Z,100333.25
2022-09-05T18:21:50.188Z,100327.41
2022-09-05T18:24:33.370Z,100328.72
2022-09-05T18:27:35.083Z,100338.09
2022-09-05T18:30:11.435Z,100329.91
2022-09-05T18:32:47.218Z,100334.72
2022-09-05T18:35:37.662Z,100329.75
2022-09-05T18:38:50.139Z,100325.88
2022-09-05T18:41:21.691Z,100323.88
2022-09-05T18:44:13.244Z,100337.25
2022-09-05T18:46:48.373Z,100342.59
2022-09-05T18:50:23.320Z,100352.44
2022-09-05T18:52:23.592Z,100352.44
2022-09-05T18:56:09.360Z,100346.94
2022-09-05T18:57:58.982Z,100341.78
2022-09-05T19:00:44.454Z,100350.63
2022-09-05T19:03:24.993Z,100361.63
2022-09-05T19:06:37.015Z,100365.31
2022-09-05T19:09:07.705Z,100356.66
2022-09-05T19:11:42.323Z,100362.66
2022-09-05T19:15:19.005Z,100363.47
2022-09-05T19:18:26.414Z,100365.81
2022-09-05T19:21:11.798Z,100354.81
2022-09-05T19:23:46.273Z,100356.34
2022-09-05T19:26:15.868Z,100354.81
2022-09-05T19:36:57.279Z,100349.16
2022-09-05T19:36:59.600Z,100340.66
2022-09-05T19:37:13.592Z,100331.50
2022-09-05T19:37:47.935Z,100339.50
2022-09-05T19:47:27.106Z,100347.53
2022-09-05T19:47:37.188Z,100358.19
2022-09-05T19:47:37.850Z,100356.34
2022-09-05T19:49:07.068Z,100364.03
2022-09-05T19:51:37.846Z,100363.69
2022-09-05T19:54:08.954Z,100370.31
2022-09-05T19:56:39.981Z,100365.50
2022-09-05T19:59:19.364Z,100372.47
2022-09-05T20:01:49.109Z,100372.47
2022-09-05T20:04:19.249Z,100386.78
2022-09-05T20:06:48.055Z,100392.63
2022-09-05T20:09:19.592Z,100405.28
2022-09-05T20:11:56.969Z,100409.78
2022-09-05T20:14:30.796Z,100404.44
2022-09-05T20:17:21.115Z,100399.59
2022-09-05T20:19:51.941Z,100391.03
2022-09-05T20:22:49.075Z,100400.03
2022-09-05T20:25:36.153Z,100393.53
2022-09-05T20:28:09.846Z,100397.56
2022-09-05T20:30:44.817Z,100407.88
2022-09-05T20:33:22.271Z,100408.88
2022-09-05T20:43:12.219Z,100409.03
2022-09-05T20:43:18.457Z,100405.91
2022-09-05T20:43:27.683Z,100409.34
2022-09-05T20:44:37.993Z,100423.00
2022-09-05T20:54:04.286Z,100424.81
2022-09-05T20:54:14.764Z,100421.28
2022-09-05T20:54:20.950Z,100423.13
2022-09-05T20:55:43.095Z,100412.81
2022-09-05T20:58:15.595Z,100412.28
2022-09-05T21:01:15.487Z,100411.44
2022-09-05T21:07:36.027Z,100406.72
2022-09-05T21:10:07.932Z,100412.72
2022-09-05T21:12:46.137Z,100417.69
2022-09-05T21:15:28.342Z,100409.47
2022-09-05T21:18:17.870Z,100418.31
2022-09-05T21:20:54.655Z,100415.13
2022-09-05T21:23:29.678Z,100419.63
2022-09-05T21:26:00.934Z,100417.09
2022-09-05T21:28:36.322Z,100409.09
2022-09-05T21:31:15.942Z,100403.28
2022-09-05T21:33:46.302Z,100406.09
2022-09-05T21:36:17.443Z,100408.91
2022-09-05T21:38:46.411Z,100421.50
2022-09-05T21:41:18.883Z,100419.00
2022-09-05T21:47:44.676Z,100419.84
2022-09-05T21:47:49.875Z,100418.19
2022-09-05T21:49:37.121Z,100418.00
2022-09-05T21:52:10.472Z,100422.34
2022-09-05T21:59:16.952Z,100414.69
2022-09-05T21:59:22.284Z,100416.75
2022-09-05T22:00:24.077Z,100412.94
2022-09-05T22:02:54.155Z,100416.78
2022-09-05T22:05:25.485Z,100413.13
2022-09-05T22:07:55.864Z,100412.13
2022-09-05T22:10:33.858Z,100404.31
2022-09-05T22:13:13.666Z,100399.28
2022-09-05T22:15:48.809Z,100403.69
2022-09-05T22:18:18.884Z,100394.22
2022-09-05T22:21:31.619Z,100397.53
2022-09-05T22:23:44.799Z,100406.47
2022-09-05T22:26:14.661Z,100403.69
2022-09-05T22:28:49.174Z,100408.00
2022-09-05T22:31:27.891Z,100412.84
2022-09-05T22:34:01.314Z,100415.81
2022-09-05T22:36:30.010Z,100414.81
2022-09-05T22:38:58.897Z,100421.84
2022-09-05T22:41:30.054Z,100416.66
2022-09-05T22:44:00.495Z,100409.50
2022-09-05T22:46:29.374Z,100415.00
2022-09-05T22:49:00.287Z,100413.69
2022-09-05T22:51:29.229Z,100410.84
2022-09-05T22:53:58.360Z,100413.25
2022-09-05T22:56:35.911Z,100410.09
2022-09-05T22:59:05.795Z,100406.97
2022-09-05T23:01:36.080Z,100407.03
2022-09-05T23:04:07.280Z,100398.03
2022-09-05T23:06:35.764Z,100396.38
2022-09-05T23:09:04.320Z,100403.19
2022-09-05T23:11:33.784Z,100394.72
2022-09-05T23:14:02.200Z,100389.53
2022-09-05T23:16:33.981Z,100399.97
2022-09-05T23:19:04.991Z,100398.31
2022-09-05T23:21:36.662Z,100396.16
2022-09-05T23:24:07.094Z,100399.97
2022-09-05T23:26:36.302Z,100398.81
2022-09-05T23:29:04.832Z,100395.00
2022-09-05T23:31:33.612Z,100399.69
2022-09-05T23:34:02.266Z,100398.81
2022-09-05T23:36:31.667Z,100407.66
2022-09-05T23:39:01.797Z,100407.66
2022-09-05T23:41:31.059Z,100416.78
2022-09-05T23:43:59.659Z,100411.47
2022-09-05T23:46:28.626Z,100419.16
2022-09-05T23:48:57.364Z,100424.31
2022-09-05T23:51:27.196Z,100426.97
2022-09-05T23:53:56.080Z,100426.44
2022-09-05T23:56:26.343Z,100425.13
2022-09-05T23:58:56.076Z,100426.97
